Time;durP1;ratioP1;P1;durP2;ratioP2;P2;SDS_P1;SDS_P2;PMS_P1;PMS_P2;Temp;Humidity;BMP_temperature;BMP_pressure;BME280_temperature;BME280_humidity;BME280_pressure;Samples;Min_cycle;Max_cycle;Signal;HPM_P1;HPM_P2
2021/10/12 00:02:06;;;;;;;26.35;14.15;;;;;;;7.62;72.27;98693.72;4950154;29;20023;-76
2021/10/12 00:04:31;;;;;;;29.50;15.80;;;;;;;7.59;71.91;98689.59;4950494;29;20070;-76
2021/10/12 00:06:58;;;;;;;32.08;16.30;;;;;;;7.56;72.13;98687.41;4950156;29;20106;-76
2021/10/12 00:09:23;;;;;;;26.20;13.60;;;;;;;7.52;72.10;98681.69;4949716;29;20050;-76
2021/10/12 00:11:49;;;;;;;32.17;16.08;;;;;;;7.47;72.05;98680.88;4949826;29;20027;-77
2021/10/12 00:14:14;;;;;;;32.50;16.80;;;;;;;7.43;73.21;98675.94;4950081;29;20042;-77
2021/10/12 00:16:39;;;;;;;31.10;16.00;;;;;;;7.41;72.38;98680.84;4933277;29;20019;-77
2021/10/12 00:19:05;;;;;;;33.83;15.93;;;;;;;7.42;72.50;98676.22;4933256;29;20070;-76
2021/10/12 00:21:30;;;;;;;25.90;14.25;;;;;;;7.44;72.39;98680.31;4932747;29;20086;-77
2021/10/12 00:23:56;;;;;;;27.70;16.45;;;;;;;7.47;72.60;98670.75;4933156;29;20023;-77
2021/10/12 00:26:21;;;;;;;28.95;15.45;;;;;;;7.48;72.67;98679.78;4950530;29;20483;-77
2021/10/12 00:28:48;;;;;;;28.27;15.10;;;;;;;7.50;72.60;98672.16;4948072;29;20051;-76
2021/10/12 00:31:14;;;;;;;28.05;15.45;;;;;;;7.57;72.92;98676.25;4949830;29;20031;-77
2021/10/12 00:33:39;;;;;;;26.95;14.60;;;;;;;7.60;72.61;98681.16;4950686;29;20373;-78
2021/10/12 00:36:04;;;;;;;29.42;16.15;;;;;;;7.64;72.17;98672.44;4949373;29;20030;-77
2021/10/12 00:38:30;;;;;;;24.30;13.80;;;;;;;7.68;73.23;98674.34;4950041;29;20027;-77
2021/10/12 00:40:55;;;;;;;25.40;15.65;;;;;;;7.69;72.69;98665.06;4932088;29;20470;-77
2021/10/12 00:43:27;;;;;;;32.08;20.65;;;;;;;7.72;72.40;98669.97;4936173;29;20035;-77
2021/10/12 00:45:54;;;;;;;26.77;15.80;;;;;;;7.73;72.07;98663.41;4953353;29;20078;-77
2021/10/12 00:48:20;;;;;;;27.85;14.85;;;;;;;7.78;72.10;98654.41;4953800;29;20054;-76
2021/10/12 00:50:46;;;;;;;24.05;13.65;;;;;;;7.81;71.82;98650.31;4953539;29;20429;-76
2021/10/12 00:53:11;;;;;;;50.60;21.80;;;;;;;7.85;71.97;98654.94;4953212;29;20027;-77
2021/10/12 00:55:38;;;;;;;38.30;16.00;;;;;;;7.87;71.64;98646.50;4953514;29;20023;-78
2021/10/12 00:58:09;;;;;;;50.17;20.63;;;;;;;7.87;72.19;98643.78;4953222;29;20054;-76
2021/10/12 01:00:53;;;;;;;50.38;19.08;;;;;;;7.89;71.58;98636.13;4952958;29;20023;-76
2021/10/12 01:03:18;;;;;;;36.97;15.63;;;;;;;7.90;71.81;98633.09;4952749;29;20027;-77
2021/10/12 01:05:44;;;;;;;29.63;14.88;;;;;;;7.94;71.95;98635.28;4953187;29;20019;-76
2021/10/12 01:08:10;;;;;;;29.88;14.75;;;;;;;7.97;71.70;98629.28;4953479;29;20027;-76
2021/10/12 01:10:35;;;;;;;29.17;14.88;;;;;;;8.00;71.43;98635.00;4935255;29;20055;-77
2021/10/12 01:13:02;;;;;;;30.70;16.45;;;;;;;8.00;71.30;98624.06;4934973;29;20031;-76
2021/10/12 01:15:28;;;;;;;43.13;18.38;;;;;;;8.00;71.01;98621.34;4953217;29;20118;-76
2021/10/12 01:17:54;;;;;;;40.22;18.00;;;;;;;7.98;71.64;98620.81;4952813;29;20110;-76
2021/10/12 01:20:19;;;;;;;35.28;16.48;;;;;;;7.96;71.24;98623.00;4952896;29;20118;-76
2021/10/12 01:22:47;;;;;;;29.48;15.82;;;;;;;7.96;71.40;98612.06;4951804;29;20587;-78
2021/10/12 01:25:14;;;;;;;27.35;14.82;;;;;;;7.99;71.01;98616.97;4952799;29;20031;-77
2021/10/12 01:27:39;;;;;;;29.60;15.60;;;;;;;7.98;71.13;98609.88;4952551;29;20628;-76
2021/10/12 01:30:08;;;;;;;26.52;14.70;;;;;;;7.91;71.08;98620.28;4952494;29;20035;-77
2021/10/12 01:32:42;;;;;;;31.67;15.77;;;;;;;7.88;71.66;98621.63;4951562;29;20035;-77
2021/10/12 01:35:09;;;;;;;22.52;12.95;;;;;;;7.83;71.30;98607.19;4952048;29;20162;-78
2021/10/12 01:37:37;;;;;;;25.73;14.23;;;;;;;7.77;71.12;98608.28;4952578;29;20550;-77
2021/10/12 01:40:05;;;;;;;26.75;14.52;;;;;;;7.72;71.54;98609.91;4952586;29;20027;-77
2021/10/12 01:42:31;;;;;;;24.42;14.65;;;;;;;7.70;70.92;98603.09;4951733;29;20388;-77
2021/10/12 01:44:59;;;;;;;23.10;13.90;;;;;;;7.65;71.57;98603.09;4952406;29;20031;-78
2021/10/12 01:47:25;;;;;;;24.40;13.38;;;;;;;7.60;71.48;98609.34;4952603;29;20376;-77
2021/10/12 01:49:50;;;;;;;23.25;13.77;;;;;;;7.53;71.72;98597.91;4952360;29;20038;-76
2021/10/12 01:52:16;;;;;;;24.85;14.00;;;;;;;7.49;71.15;98605.81;4951822;28;20027;-77
2021/10/12 01:54:41;;;;;;;25.83;14.52;;;;;;;7.50;71.21;98602.00;4951747;29;20034;-77
2021/10/12 01:57:07;;;;;;;22.92;13.80;;;;;;;7.49;71.20;98602.28;4952313;29;20031;-77
2021/10/12 01:59:32;;;;;;;26.90;14.98;;;;;;;7.45;71.04;98594.63;4952061;29;20034;-75
2021/10/12 02:02:01;;;;;;;27.38;15.55;;;;;;;7.42;71.05;98589.72;4952212;29;20019;-76
2021/10/12 02:04:27;;;;;;;26.42;14.88;;;;;;;7.40;71.12;98602.81;4951609;29;20115;-77
2021/10/12 02:06:52;;;;;;;24.42;14.57;;;;;;;7.38;71.03;98593.25;4951721;29;20114;-76
2021/10/12 02:09:19;;;;;;;26.10;14.63;;;;;;;7.39;71.50;98587.53;4951905;29;20095;-77
2021/10/12 02:11:45;;;;;;;24.35;15.05;;;;;;;7.37;70.94;98588.88;4951754;29;20046;-76
2021/10/12 02:14:10;;;;;;;27.73;15.07;;;;;;;7.35;71.13;98588.34;4934562;29;20488;-77
2021/10/12 02:16:38;;;;;;;23.25;13.35;;;;;;;7.35;71.22;98586.44;4951757;29;20023;-76
2021/10/12 02:19:03;;;;;;;25.35;14.05;;;;;;;7.33;71.34;98580.44;4951666;29;20701;-76
2021/10/12 02:21:29;;;;;;;22.58;13.68;;;;;;;7.33;71.51;98583.16;4951452;29;20035;-74
2021/10/12 02:23:54;;;;;;;25.48;14.52;;;;;;;7.31;71.69;98579.88;4950456;29;20085;-77
2021/10/12 02:26:21;;;;;;;24.55;14.85;;;;;;;7.32;71.52;98583.44;4933916;29;20031;-76
2021/10/12 02:28:46;;;;;;;26.35;13.57;;;;;;;7.35;71.59;98580.16;4951330;29;20029;-77
2021/10/12 02:31:12;;;;;;;27.27;14.68;;;;;;;7.36;71.39;98581.78;4951067;29;20403;-76
2021/10/12 02:33:37;;;;;;;23.38;13.30;;;;;;;7.33;71.31;98577.69;4951274;29;20035;-76
2021/10/12 02:36:03;;;;;;;24.52;13.52;;;;;;;7.32;71.49;98570.59;4951402;29;20110;-78
2021/10/12 02:38:28;;;;;;;25.60;14.52;;;;;;;7.30;71.47;98578.25;4932500;29;20027;-77
2021/10/12 02:40:54;;;;;;;25.17;14.63;;;;;;;7.27;71.33;98570.59;4950743;29;20472;-77
2021/10/12 02:43:20;;;;;;;27.90;15.52;;;;;;;7.24;71.86;98566.53;4949846;29;20034;-77
2021/10/12 02:45:46;;;;;;;27.38;14.32;;;;;;;7.27;71.48;98574.16;4951188;29;20338;-77
2021/10/12 02:48:11;;;;;;;26.08;15.30;;;;;;;7.27;71.79;98567.88;4951053;29;20028;-77
2021/10/12 02:50:36;;;;;;;26.42;14.23;;;;;;;7.28;71.28;98566.78;4950718;29;20078;-77
2021/10/12 02:53:02;;;;;;;24.65;14.18;;;;;;;7.28;71.79;98567.63;4933223;29;20038;-77
2021/10/12 02:55:28;;;;;;;26.58;14.63;;;;;;;7.25;71.44;98557.25;4933567;29;20122;-77
2021/10/12 02:57:53;;;;;;;24.83;14.23;;;;;;;7.23;71.68;98564.03;4932766;29;20051;-77
2021/10/12 03:00:19;;;;;;;25.15;14.13;;;;;;;7.14;71.32;98561.84;4949555;29;20031;-77
2021/10/12 03:02:44;;;;;;;30.50;15.48;;;;;;;7.07;71.32;98549.56;4949493;29;20106;-77
2021/10/12 03:05:12;;;;;;;25.30;14.82;;;;;;;7.00;71.42;98552.56;4949180;28;20059;-76
2021/10/12 03:07:39;;;;;;;27.42;14.07;;;;;;;6.95;71.40;98545.19;4949336;29;20539;-77
2021/10/12 03:10:06;;;;;;;26.48;14.40;;;;;;;6.92;71.43;98534.84;4949405;29;20046;-77
2021/10/12 03:12:31;;;;;;;25.02;15.20;;;;;;;6.91;71.61;98532.38;4950524;29;20508;-77
2021/10/12 03:14:58;;;;;;;24.98;13.80;;;;;;;6.89;71.52;98537.28;4934330;29;20047;-77
2021/10/12 03:17:23;;;;;;;27.77;14.30;;;;;;;6.82;71.04;98534.81;4951284;29;20368;-76
2021/10/12 03:19:49;;;;;;;25.92;14.75;;;;;;;6.78;71.30;98536.44;4951902;29;20031;-77
2021/10/12 03:22:15;;;;;;;27.80;14.43;;;;;;;6.76;71.48;98533.97;4934716;29;20039;-76
2021/10/12 03:24:42;;;;;;;27.88;14.88;;;;;;;6.75;71.59;98532.34;4951628;29;20082;-77
2021/10/12 03:27:09;;;;;;;25.80;14.65;;;;;;;6.72;71.76;98524.72;4952184;29;20031;-77
2021/10/12 03:29:36;;;;;;;28.83;15.43;;;;;;;6.70;71.29;98535.88;4951520;29;20067;-76
2021/10/12 03:32:02;;;;;;;26.52;14.77;;;;;;;6.69;71.38;98512.44;4951831;29;20028;-77
2021/10/12 03:34:28;;;;;;;23.50;13.52;;;;;;;6.69;72.40;98508.91;4951970;29;20058;-77
2021/10/12 03:36:55;;;;;;;26.27;15.38;;;;;;;6.67;71.81;98514.63;4951673;29;20082;-77
2021/10/12 03:39:21;;;;;;;26.42;14.52;;;;;;;6.69;71.65;98511.63;4951373;29;20176;-76
2021/10/12 03:41:47;;;;;;;23.38;14.23;;;;;;;6.72;71.96;98511.09;4951758;29;20457;-77
2021/10/12 03:44:12;;;;;;;25.83;14.40;;;;;;;6.74;71.97;98508.91;4951017;29;20091;-77
2021/10/12 03:46:38;;;;;;;25.85;15.13;;;;;;;6.73;72.00;98515.44;4951490;29;20038;-78
2021/10/12 03:49:03;;;;;;;27.90;14.38;;;;;;;6.74;72.31;98498.00;4951331;29;20043;-79
2021/10/12 03:51:30;;;;;;;24.35;14.52;;;;;;;6.73;71.97;98496.34;4951383;29;20487;-79
2021/10/12 03:53:56;;;;;;;20.35;12.70;;;;;;;6.74;72.33;98495.25;4951646;29;20027;-78
2021/10/12 03:56:21;;;;;;;21.83;12.95;;;;;;;6.75;72.72;98496.09;4951504;29;20094;-78
2021/10/12 03:58:47;;;;;;;21.67;13.77;;;;;;;6.75;72.71;98502.34;4945409;29;20027;-78
2021/10/12 04:01:13;;;;;;;24.45;13.95;;;;;;;6.75;72.70;98498.81;4949083;29;20031;-78
2021/10/12 04:03:40;;;;;;;25.55;13.60;;;;;;;6.76;72.69;98497.75;4950788;29;20373;-79
2021/10/12 04:06:05;;;;;;;23.83;14.25;;;;;;;6.78;72.76;98499.09;4951207;29;20535;-78
2021/10/12 04:08:31;;;;;;;25.77;14.13;;;;;;;6.81;72.63;98495.81;4951454;29;20023;-78
2021/10/12 04:10:56;;;;;;;31.83;16.05;;;;;;;6.90;73.02;98496.13;4950736;29;20062;-78
2021/10/12 04:13:22;;;;;;;27.85;14.90;;;;;;;6.97;72.95;98496.66;4949745;29;20027;-78
2021/10/12 04:15:47;;;;;;;33.13;15.98;;;;;;;6.99;72.77;98493.69;4951182;28;20027;-78
2021/10/12 04:18:12;;;;;;;30.48;16.33;;;;;;;7.01;72.40;98488.78;4955513;29;20037;-78
2021/10/12 04:20:38;;;;;;;33.05;17.77;;;;;;;7.03;72.62;98485.75;4955016;29;20038;-78
2021/10/12 04:23:07;;;;;;;29.30;17.05;;;;;;;7.03;72.70;98488.47;4955008;29;20081;-78
2021/10/12 04:25:33;;;;;;;33.85;17.77;;;;;;;7.02;72.65;98487.69;4937838;29;20031;-79
2021/10/12 04:27:58;;;;;;;35.40;17.90;;;;;;;6.98;72.61;98483.84;4938009;29;20085;-79
2021/10/12 04:30:24;;;;;;;29.52;15.52;;;;;;;6.96;72.61;98484.13;4954375;29;20039;-79
2021/10/12 04:32:49;;;;;;;31.10;16.50;;;;;;;6.93;72.47;98483.84;4954515;29;20031;-77
2021/10/12 04:35:15;;;;;;;25.30;14.95;;;;;;;6.90;72.84;98473.50;4953585;29;20039;-78
2021/10/12 04:37:40;;;;;;;29.88;15.50;;;;;;;6.86;73.00;98475.94;4937456;29;20031;-78
2021/10/12 04:40:06;;;;;;;27.65;15.23;;;;;;;6.84;72.69;98472.69;4955433;29;20430;-78
2021/10/12 04:42:31;;;;;;;28.73;14.82;;;;;;;6.84;72.68;98475.41;4955753;29;20073;-78
2021/10/12 04:44:58;;;;;;;26.10;15.60;;;;;;;6.81;72.81;98467.75;4954559;29;20036;-79
2021/10/12 04:47:23;;;;;;;31.15;16.23;;;;;;;6.78;72.68;98471.03;4954144;29;20027;-79
2021/10/12 04:49:49;;;;;;;25.42;15.38;;;;;;;6.77;73.30;98469.38;4955297;29;20043;-79
2021/10/12 04:52:15;;;;;;;29.88;15.98;;;;;;;6.75;73.20;98464.19;4937617;29;20530;-78
2021/10/12 04:54:41;;;;;;;28.05;15.55;;;;;;;6.74;73.20;98459.03;4954707;29;20023;-78
2021/10/12 04:57:06;;;;;;;26.90;14.57;;;;;;;6.73;73.27;98463.66;4954692;29;20400;-78
2021/10/12 04:59:32;;;;;;;28.70;15.57;;;;;;;6.73;73.43;98443.75;4954900;29;20035;-78
2021/10/12 05:01:57;;;;;;;24.90;13.43;;;;;;;6.72;73.59;98448.41;4953678;29;20035;-78
2021/10/12 05:04:23;;;;;;;26.98;15.00;;;;;;;6.75;73.47;98447.84;4953422;29;20513;-78
2021/10/12 05:06:48;;;;;;;26.33;14.27;;;;;;;6.77;73.44;98447.59;4954278;29;20084;-78
2021/10/12 05:09:14;;;;;;;30.63;15.45;;;;;;;6.78;73.51;98444.56;4954194;29;20031;-78
2021/10/12 05:11:39;;;;;;;24.95;13.88;;;;;;;6.81;73.47;98444.03;4953911;29;20053;-78
2021/10/12 05:14:05;;;;;;;26.17;13.82;;;;;;;6.82;73.52;98448.41;4954554;29;20387;-78
2021/10/12 05:16:32;;;;;;;27.52;13.88;;;;;;;6.85;73.56;98450.56;4954443;29;20504;-79
2021/10/12 05:18:59;;;;;;;23.45;13.43;;;;;;;6.87;73.54;98453.06;4953974;29;20542;-79
2021/10/12 05:21:25;;;;;;;25.30;13.90;;;;;;;6.89;73.34;98455.50;4935663;29;20035;-78
2021/10/12 05:23:51;;;;;;;26.60;14.27;;;;;;;6.89;73.41;98459.06;4955092;29;20031;-78
2021/10/12 05:26:16;;;;;;;26.65;14.10;;;;;;;6.90;73.65;98463.41;4948177;29;20106;-77
2021/10/12 05:28:42;;;;;;;27.90;13.70;;;;;;;6.91;73.91;98459.59;4950338;29;20036;-78
2021/10/12 05:31:08;;;;;;;22.40;12.75;;;;;;;6.91;73.65;98453.31;4954919;29;20074;-78
2021/10/12 05:33:33;;;;;;;21.92;11.77;;;;;;;6.93;73.45;98456.59;4953288;29;20079;-73
2021/10/12 05:36:00;;;;;;;27.80;14.13;;;;;;;6.92;73.64;98463.13;4950267;29;20031;-72
2021/10/12 05:38:26;;;;;;;28.02;14.07;;;;;;;6.91;73.44;98458.75;4955013;29;20023;-74
2021/10/12 05:40:52;;;;;;;28.48;13.27;;;;;;;6.89;73.44;98467.22;4954659;29;20236;-74
2021/10/12 05:43:18;;;;;;;25.95;13.73;;;;;;;6.87;73.76;98463.13;4953528;29;20474;-74
2021/10/12 05:45:43;;;;;;;28.98;14.38;;;;;;;6.90;73.61;98457.97;4953614;29;20023;-73
2021/10/12 05:48:10;;;;;;;25.23;13.57;;;;;;;6.90;73.71;98463.41;4953618;29;20078;-74
2021/10/12 05:50:37;;;;;;;27.55;15.75;;;;;;;6.92;73.59;98457.69;4936361;29;20510;-73
2021/10/12 05:58:25;;;;;;;28.20;14.52;;;;;;;6.95;73.70;98470.75;4953855;29;20039;-74
2021/10/12 06:00:50;;;;;;;24.63;12.82;;;;;;;6.94;73.56;98474.59;4953270;29;20031;-74
2021/10/12 06:03:16;;;;;;;24.08;12.27;;;;;;;6.93;73.75;98468.28;4952659;29;20432;-72
2021/10/12 06:05:41;;;;;;;22.33;12.05;;;;;;;6.94;73.70;98464.47;4952524;29;20040;-74
2021/10/12 06:08:07;;;;;;;22.92;11.98;;;;;;;6.94;73.49;98474.59;4953133;29;20114;-73
2021/10/12 06:10:32;;;;;;;28.02;13.77;;;;;;;6.92;73.85;98474.88;4953261;29;20058;-73
2021/10/12 06:12:58;;;;;;;28.25;13.10;;;;;;;6.90;73.78;98471.59;4952889;29;20035;-73
2021/10/12 06:15:23;;;;;;;29.25;13.77;;;;;;;6.88;73.95;98476.50;4953093;29;20096;-73
2021/10/12 06:17:49;;;;;;;26.63;13.45;;;;;;;6.88;74.05;98475.66;4953176;29;20019;-74
2021/10/12 06:20:14;;;;;;;21.35;11.85;;;;;;;6.91;74.01;98477.84;4953479;29;20035;-74
2021/10/12 06:22:39;;;;;;;18.45;10.50;;;;;;;6.93;74.84;98472.94;4952952;29;20110;-73
2021/10/12 06:25:06;;;;;;;22.25;11.23;;;;;;;6.94;74.03;98478.13;4953234;29;20164;-73
2021/10/12 06:27:31;;;;;;;24.23;11.38;;;;;;;6.92;74.21;98482.22;4952632;29;20037;-74
2021/10/12 06:29:57;;;;;;;20.67;11.55;;;;;;;6.91;74.41;98481.41;4953160;29;20039;-73
2021/10/12 06:32:22;;;;;;;26.25;14.00;;;;;;;6.93;74.49;98478.41;4937055;29;20023;-74
2021/10/12 06:34:47;;;;;;;20.65;11.50;;;;;;;6.94;74.29;98480.84;4952689;29;20113;-73
2021/10/12 06:37:13;;;;;;;21.13;10.77;;;;;;;6.98;74.06;98479.22;4952569;29;20035;-73
2021/10/12 06:39:38;;;;;;;17.58;10.25;;;;;;;7.02;74.73;98484.94;4952306;28;20055;-72
2021/10/12 06:42:03;;;;;;;21.23;11.25;;;;;;;7.03;74.31;98478.41;4952446;29;20107;-73
2021/10/12 06:44:29;;;;;;;32.80;14.57;;;;;;;7.07;74.64;98482.22;4952730;29;20081;-73
2021/10/12 06:46:54;;;;;;;29.20;13.15;;;;;;;7.17;74.59;98486.03;4951923;29;20082;-73
2021/10/12 06:49:21;;;;;;;25.83;11.68;;;;;;;7.26;74.84;98485.22;4952361;29;20031;-73
2021/10/12 06:51:47;;;;;;;24.70;12.30;;;;;;;7.24;74.33;98479.22;4952221;29;20075;-73
2021/10/12 06:54:12;;;;;;;20.17;10.30;;;;;;;7.18;74.71;98488.50;4952513;29;20396;-73
2021/10/12 06:56:38;;;;;;;27.30;14.50;;;;;;;7.08;74.33;98486.59;4952625;29;20024;-73
2021/10/12 06:59:03;;;;;;;24.50;13.43;;;;;;;7.09;74.03;98490.13;4935179;29;20050;-73
2021/10/12 07:01:29;;;;;;;20.70;12.13;;;;;;;7.09;74.63;98490.97;4935115;29;20042;-73
2021/10/12 07:03:54;;;;;;;22.13;11.88;;;;;;;7.09;74.87;98485.50;4952361;29;20019;-73
2021/10/12 07:06:20;;;;;;;23.55;12.38;;;;;;;7.14;74.62;98484.69;4952226;29;20057;-73
2021/10/12 07:08:45;;;;;;;34.33;14.85;;;;;;;7.24;75.02;98487.41;4952096;29;20079;-73
2021/10/12 07:11:10;;;;;;;28.40;11.63;;;;;;;7.40;74.67;98487.38;4952183;29;20062;-73
2021/10/12 07:13:36;;;;;;;21.15;10.65;;;;;;;7.55;74.70;98489.25;4951931;29;20108;-72
2021/10/12 07:16:01;;;;;;;23.20;11.82;;;;;;;7.71;74.73;98490.09;4952376;29;20043;-73
2021/10/12 07:18:27;;;;;;;24.98;12.10;;;;;;;7.85;75.05;98490.31;4952117;29;20114;-72
2021/10/12 07:20:52;;;;;;;15.70;8.68;;;;;;;7.93;75.32;98492.47;4952140;29;20027;-72
2021/10/12 07:23:18;;;;;;;15.55;9.40;;;;;;;7.94;74.58;98488.66;4951886;29;20456;-72
2021/10/12 07:25:44;;;;;;;19.77;11.50;;;;;;;7.90;74.12;98491.09;4934825;29;20476;-72
2021/10/12 07:28:10;;;;;;;16.80;9.07;;;;;;;7.89;74.55;98492.19;4952055;29;20038;-73
2021/10/12 07:30:35;;;;;;;15.30;9.57;;;;;;;7.96;75.00;98496.56;4951213;29;20483;-72
2021/10/12 07:33:01;;;;;;;17.63;9.68;;;;;;;8.07;74.16;98494.59;4950805;29;20504;-72
2021/10/12 07:35:26;;;;;;;18.90;9.75;;;;;;;8.17;74.29;98492.63;4951533;29;20102;-73
2021/10/12 07:37:51;;;;;;;15.98;8.25;;;;;;;8.25;73.98;98496.72;4951500;29;20101;-73
2021/10/12 07:40:17;;;;;;;16.70;8.95;;;;;;;8.20;74.07;98496.75;4951922;29;20026;-72
2021/10/12 07:42:42;;;;;;;13.48;8.02;;;;;;;8.21;74.29;98495.66;4951501;29;20039;-72
2021/10/12 07:45:08;;;;;;;15.45;8.50;;;;;;;8.23;73.83;98489.88;4952123;29;20020;-72
2021/10/12 07:47:34;;;;;;;26.80;12.35;;;;;;;8.29;74.17;98491.50;4951925;29;20073;-73
2021/10/12 07:50:01;;;;;;;15.57;8.35;;;;;;;8.32;73.30;98485.47;4951536;29;20027;-71
2021/10/12 07:52:26;;;;;;;19.15;9.65;;;;;;;8.30;73.16;98483.03;4951043;29;20026;-72
2021/10/12 07:55:01;;;;;;;24.83;13.35;;;;;;;8.33;72.98;98489.84;4951852;29;20027;-72
2021/10/12 07:57:27;;;;;;;22.10;11.25;;;;;;;8.45;73.39;98481.31;4951937;29;20411;-72
2021/10/12 07:59:52;;;;;;;27.42;11.85;;;;;;;8.56;73.11;98498.53;4951637;29;20040;-72
2021/10/12 08:02:17;;;;;;;21.27;9.15;;;;;;;8.62;72.46;98487.28;4931172;29;20031;-72
2021/10/12 08:04:43;;;;;;;16.63;9.43;;;;;;;8.62;72.35;98486.44;4954422;28;20118;-73
2021/10/12 08:07:09;;;;;;;40.10;14.40;;;;;;;8.61;72.34;98493.00;4952156;29;20031;-73
2021/10/12 08:09:35;;;;;;;18.60;9.25;;;;;;;8.62;72.89;98494.63;4951061;29;20218;-72
2021/10/12 08:12:04;;;;;;;19.08;9.45;;;;;;;8.71;72.36;98489.41;4951987;29;20543;-72
2021/10/12 08:14:31;;;;;;;20.63;12.10;;;;;;;8.74;71.68;98484.19;4932843;29;20027;-72
2021/10/12 08:16:57;;;;;;;17.60;10.35;;;;;;;8.86;72.69;98478.34;4949249;29;20031;-72
2021/10/12 08:19:24;;;;;;;13.15;8.50;;;;;;;8.95;71.74;98481.31;4932497;29;20498;-73
2021/10/12 08:21:49;;;;;;;11.25;7.55;;;;;;;9.00;71.48;98483.19;4943910;29;20035;-71
2021/10/12 08:24:19;;;;;;;14.63;8.52;;;;;;;8.97;70.90;98479.09;4949855;29;20034;-71
2021/10/12 08:26:45;;;;;;;13.90;8.50;;;;;;;8.97;70.35;98479.09;4947460;29;20028;-72
2021/10/12 08:29:11;;;;;;;19.48;9.60;;;;;;;8.98;70.70;98482.66;4944682;28;20034;-72
2021/10/12 08:31:36;;;;;;;24.17;11.00;;;;;;;9.01;70.96;98484.81;4949550;28;20023;-71
2021/10/12 08:34:02;;;;;;;22.08;10.88;;;;;;;8.89;69.66;98482.44;4950607;29;20657;-72
2021/10/12 08:36:28;;;;;;;22.00;10.35;;;;;;;8.82;70.32;98471.81;4948545;29;20036;-72
2021/10/12 08:38:56;;;;;;;15.13;8.45;;;;;;;8.85;70.30;98473.19;4947715;29;20550;-72
2021/10/12 08:41:29;;;;;;;19.52;10.18;;;;;;;8.89;70.01;98471.50;4948364;29;20040;-72
2021/10/12 08:43:56;;;;;;;17.33;9.27;;;;;;;8.89;70.24;98469.59;4949702;29;20030;-71
2021/10/12 08:46:26;;;;;;;15.23;7.90;;;;;;;8.82;69.67;98465.53;4950367;29;20035;-70
2021/10/12 08:48:54;;;;;;;12.20;7.00;;;;;;;8.75;69.66;98466.66;4931223;29;20127;-71
2021/10/12 08:51:19;;;;;;;11.52;5.47;;;;;;;8.76;69.56;98453.84;4948792;29;20050;-71
2021/10/12 08:53:45;;;;;;;12.45;5.63;;;;;;;8.78;69.19;98459.81;4949348;29;20484;-72
2021/10/12 08:56:10;;;;;;;12.43;5.93;;;;;;;8.79;68.87;98447.78;4947677;29;20053;-72
2021/10/12 08:58:36;;;;;;;7.63;4.25;;;;;;;8.79;68.63;98448.59;4949077;29;20492;-71
2021/10/12 09:01:07;;;;;;;14.73;6.80;;;;;;;8.88;68.76;98443.34;4948557;29;20122;-73
2021/10/12 09:04:02;;;;;;;10.10;4.95;;;;;;;9.08;68.03;98438.81;4951621;28;20115;-72
2021/10/12 09:06:30;;;;;;;16.73;7.72;;;;;;;9.23;67.22;98426.91;4951319;29;20039;-72
2021/10/12 09:08:57;;;;;;;7.13;4.15;;;;;;;9.41;67.25;98427.25;4949385;29;20039;-70
2021/10/12 09:11:27;;;;;;;6.65;3.85;;;;;;;9.63;64.10;98418.53;4952422;29;20050;-71
2021/10/12 09:14:02;;;;;;;8.50;3.60;;;;;;;9.73;65.74;98421.19;4953289;29;20087;-71
2021/10/12 09:16:34;;;;;;;9.10;4.28;;;;;;;9.75;64.44;98413.50;4953273;29;20089;-72
2021/10/12 09:19:02;;;;;;;17.48;7.85;;;;;;;9.77;65.33;98424.16;4953834;29;20114;-72
2021/10/12 09:21:29;;;;;;;5.15;3.30;;;;;;;9.82;64.55;98413.97;4951882;29;20020;-73
2021/10/12 09:24:08;;;;;;;9.70;3.67;;;;;;;9.94;64.79;98413.53;4953522;29;20042;-72
2021/10/12 09:26:39;;;;;;;8.95;4.15;;;;;;;10.20;63.31;98404.97;4953728;29;20027;-71
2021/10/12 09:29:29;;;;;;;7.38;3.28;;;;;;;10.45;64.21;98400.28;4953716;29;20027;-73
2021/10/12 09:31:56;;;;;;;5.22;3.00;;;;;;;10.60;63.21;98409.41;4942100;29;20391;-72
2021/10/12 09:34:23;;;;;;;5.35;3.53;;;;;;;10.56;61.38;98401.75;4951247;28;20082;-72
2021/10/12 09:36:51;;;;;;;5.20;3.00;;;;;;;10.42;61.38;98404.41;4953381;29;20038;-73
2021/10/12 09:39:43;;;;;;;7.05;2.97;;;;;;;10.37;61.37;98399.00;4953066;29;20364;-71
2021/10/12 09:42:14;;;;;;;6.82;3.40;;;;;;;10.45;61.49;98399.44;4952338;29;20377;-71
2021/10/12 09:44:59;;;;;;;5.90;3.00;;;;;;;10.50;61.69;98386.50;4948181;29;20454;-71
2021/10/12 09:47:27;;;;;;;10.73;5.13;;;;;;;10.58;61.67;98382.25;4953541;29;20031;-71
2021/10/12 09:50:10;;;;;;;10.70;4.72;;;;;;;10.63;60.64;98382.19;4952767;29;20042;-73
2021/10/12 09:52:38;;;;;;;11.93;5.68;;;;;;;10.64;61.18;98385.72;4950220;29;20114;-71
2021/10/12 09:55:05;;;;;;;11.75;4.50;;;;;;;10.64;61.67;98372.00;4952514;29;20110;-71
2021/10/12 09:57:32;;;;;;;5.15;2.60;;;;;;;10.64;61.06;98380.25;4952601;29;20547;-73
2021/10/12 09:59:57;;;;;;;4.22;2.20;;;;;;;10.55;60.04;98380.09;4935507;29;20039;-73
2021/10/12 10:02:24;;;;;;;11.82;5.20;;;;;;;10.45;59.37;98377.50;4952654;29;20086;-71
2021/10/12 10:04:52;;;;;;;6.53;3.35;;;;;;;10.41;59.59;98375.38;4952812;29;20452;-73
2021/10/12 10:07:27;;;;;;;11.15;4.35;;;;;;;10.41;59.81;98369.09;4952887;29;20113;-74
2021/10/12 10:10:15;;;;;;;7.53;3.33;;;;;;;10.40;59.76;98364.72;4952388;29;20150;-72
2021/10/12 10:12:40;;;;;;;8.32;3.33;;;;;;;10.39;59.50;98363.88;4951964;29;20062;-72
2021/10/12 10:15:06;;;;;;;5.93;3.60;;;;;;;10.36;59.48;98367.22;4934493;29;20073;-73
2021/10/12 10:17:32;;;;;;;7.95;3.90;;;;;;;10.45;60.30;98369.28;4948996;29;20031;-73
2021/10/12 10:20:02;;;;;;;16.75;5.65;;;;;;;10.50;59.79;98361.81;4950425;29;20031;-71
2021/10/12 10:22:38;;;;;;;25.92;12.65;;;;;;;10.53;59.41;98344.78;4951400;29;20023;-73
2021/10/12 10:25:29;;;;;;;37.65;20.30;;;;;;;10.58;59.86;98349.34;4952733;29;20408;-74
2021/10/12 10:28:24;;;;;;;18.10;9.48;;;;;;;10.61;60.16;98348.75;4950763;29;20074;-73
2021/10/12 10:30:59;;;;;;;6.43;2.92;;;;;;;10.64;60.49;98339.94;4948813;29;20050;-72
2021/10/12 10:33:28;;;;;;;11.32;5.88;;;;;;;10.66;59.91;98334.97;4934869;29;20031;-74
2021/10/12 10:36:01;;;;;;;8.18;3.75;;;;;;;10.68;60.61;98326.41;4951400;29;20027;-72
2021/10/12 10:38:42;;;;;;;8.82;3.65;;;;;;;10.77;60.46;98330.09;4948060;29;20632;-71
2021/10/12 10:41:10;;;;;;;7.38;3.33;;;;;;;10.91;60.15;98335.63;4952166;29;20043;-70
2021/10/12 10:44:01;;;;;;;10.60;3.45;;;;;;;11.06;60.10;98326.28;4951645;29;20034;-71
2021/10/12 10:46:33;;;;;;;5.70;2.40;;;;;;;11.17;58.78;98322.25;4951586;29;20023;-71
2021/10/12 10:49:19;;;;;;;7.40;2.90;;;;;;;11.24;58.26;98319.09;4943793;29;20031;-72
2021/10/12 10:51:47;;;;;;;6.07;2.20;;;;;;;11.26;58.38;98311.38;4951023;29;20026;-70
2021/10/12 10:54:38;;;;;;;5.20;2.20;;;;;;;11.22;58.36;98307.59;4950022;29;20078;-70
2021/10/12 10:57:08;;;;;;;4.63;2.05;;;;;;;11.14;57.50;98303.66;4952178;29;20173;-70
2021/10/12 10:59:33;;;;;;;;;;;;;;;11.08;57.68;98295.81;4951788;29;20062;-71
2021/10/12 11:01:58;;;;;;;10.27;3.72;;;;;;;11.04;56.42;98303.81;4951105;29;20383;-72
2021/10/12 11:04:53;;;;;;;6.38;4.30;;;;;;;11.03;57.07;98293.97;4950813;29;20110;-72
2021/10/12 11:07:24;;;;;;;11.20;5.20;;;;;;;11.15;55.92;98296.25;4928710;29;20043;-71
2021/10/12 11:09:51;;;;;;;5.72;3.88;;;;;;;11.26;55.46;98296.84;4951187;29;20055;-70
2021/10/12 11:12:24;;;;;;;50.63;16.73;;;;;;;11.46;55.66;98299.16;4950931;29;20031;-72
2021/10/12 11:14:54;;;;;;;15.90;5.70;;;;;;;11.72;55.23;98284.91;4951638;29;20074;-72
2021/10/12 11:17:20;;;;;;;6.78;2.38;;;;;;;11.83;53.95;98279.16;4934367;29;20081;-71
2021/10/12 11:20:02;;;;;;;4.25;2.38;;;;;;;11.90;54.80;98277.66;4951151;29;20476;-72
2021/10/12 11:22:29;;;;;;;4.13;1.80;;;;;;;11.98;54.60;98270.59;4950548;29;20042;-71
2021/10/12 11:24:55;;;;;;;2.75;1.65;;;;;;;12.01;52.10;98269.22;4951569;28;20031;-71
2021/10/12 11:27:24;;;;;;;5.68;1.73;;;;;;;12.00;52.97;98267.56;4951688;29;20031;-72
2021/10/12 11:30:06;;;;;;;4.15;2.35;;;;;;;11.97;51.49;98268.16;4947654;29;20055;-70
2021/10/12 11:32:31;;;;;;;6.00;2.20;;;;;;;11.89;52.75;98272.44;4933210;29;20093;-71
2021/10/12 11:35:10;;;;;;;7.28;3.85;;;;;;;11.76;51.12;98261.19;4950009;29;20476;-70